sensor_id;sensor_type;location;lat;lon;timestamp;temperature;humidity
7562;DHT22;3822;48.784;9.174;2023-08-31T00:01:59;17.00;98.40
7562;DHT22;3822;48.784;9.174;2023-08-31T00:04:28;17.00;98.40
7562;DHT22;3822;48.784;9.174;2023-08-31T00:06:56;17.00;98.40
7562;DHT22;3822;48.784;9.174;2023-08-31T00:09:23;17.00;98.50
7562;DHT22;3822;48.784;9.174;2023-08-31T00:11:50;16.90;98.40
7562;DHT22;3822;48.784;9.174;2023-08-31T00:14:17;17.00;98.40
7562;DHT22;3822;48.784;9.174;2023-08-31T00:16:43;17.00;98.30
7562;DHT22;3822;48.784;9.174;2023-08-31T00:19:12;17.00;98.30
7562;DHT22;3822;48.784;9.174;2023-08-31T00:21:40;17.00;98.10
7562;DHT22;3822;48.784;9.174;2023-08-31T00:24:06;17.00;98.00
7562;DHT22;3822;48.784;9.174;2023-08-31T00:26:35;17.00;98.00
7562;DHT22;3822;48.784;9.174;2023-08-31T00:29:11;17.00;97.90
7562;DHT22;3822;48.784;9.174;2023-08-31T00:31:42;17.00;97.80
7562;DHT22;3822;48.784;9.174;2023-08-31T00:34:10;17.00;97.80
7562;DHT22;3822;48.784;9.174;2023-08-31T00:36:40;16.90;97.70
7562;DHT22;3822;48.784;9.174;2023-08-31T00:39:06;16.90;97.70
7562;DHT22;3822;48.784;9.174;2023-08-31T00:41:36;16.90;97.70
7562;DHT22;3822;48.784;9.174;2023-08-31T00:44:03;16.80;97.70
7562;DHT22;3822;48.784;9.174;2023-08-31T00:46:31;16.80;97.70
7562;DHT22;3822;48.784;9.174;2023-08-31T00:48:58;16.70;97.70
7562;DHT22;3822;48.784;9.174;2023-08-31T00:51:24;16.70;97.80
7562;DHT22;3822;48.784;9.174;2023-08-31T00:53:51;16.70;97.80
7562;DHT22;3822;48.784;9.174;2023-08-31T00:56:21;16.70;97.80
7562;DHT22;3822;48.784;9.174;2023-08-31T00:58:47;16.70;97.90
7562;DHT22;3822;48.784;9.174;2023-08-31T01:14:23;16.60;97.90
7562;DHT22;3822;48.784;9.174;2023-08-31T01:16:51;16.60;97.90
7562;DHT22;3822;48.784;9.174;2023-08-31T01:22:05;16.60;98.00
7562;DHT22;3822;48.784;9.174;2023-08-31T01:24:35;16.60;98.00
7562;DHT22;3822;48.784;9.174;2023-08-31T01:27:01;16.60;98.00
7562;DHT22;3822;48.784;9.174;2023-08-31T01:29:30;16.60;98.00
7562;DHT22;3822;48.784;9.174;2023-08-31T01:31:57;16.50;97.90
7562;DHT22;3822;48.784;9.174;2023-08-31T01:34:24;16.60;98.00
7562;DHT22;3822;48.784;9.174;2023-08-31T01:36:53;16.50;97.90
7562;DHT22;3822;48.784;9.174;2023-08-31T01:41:57;16.40;98.00
7562;DHT22;3822;48.784;9.174;2023-08-31T01:44:24;16.40;98.00
7562;DHT22;3822;48.784;9.174;2023-08-31T01:46:57;16.40;98.00
7562;DHT22;3822;48.784;9.174;2023-08-31T01:49:28;16.00;97.90
7562;DHT22;3822;48.784;9.174;2023-08-31T01:51:54;16.30;98.10
7562;DHT22;3822;48.784;9.174;2023-08-31T01:54:21;16.20;98.10
7562;DHT22;3822;48.784;9.174;2023-08-31T01:56:47;16.30;98.30
7562;DHT22;3822;48.784;9.174;2023-08-31T01:59:13;16.20;98.30
7562;DHT22;3822;48.784;9.174;2023-08-31T02:01:39;16.20;98.30
7562;DHT22;3822;48.784;9.174;2023-08-31T02:04:08;16.20;98.40
7562;DHT22;3822;48.784;9.174;2023-08-31T02:06:35;16.20;98.50
7562;DHT22;3822;48.784;9.174;2023-08-31T02:09:01;16.10;98.50
7562;DHT22;3822;48.784;9.174;2023-08-31T02:11:27;16.10;98.60
7562;DHT22;3822;48.784;9.174;2023-08-31T02:13:58;16.10;98.60
7562;DHT22;3822;48.784;9.174;2023-08-31T02:16:24;16.10;98.60
7562;DHT22;3822;48.784;9.174;2023-08-31T02:18:50;16.10;98.70
7562;DHT22;3822;48.784;9.174;2023-08-31T02:21:16;16.10;98.70
7562;DHT22;3822;48.784;9.174;2023-08-31T02:23:46;16.10;98.80
7562;DHT22;3822;48.784;9.174;2023-08-31T02:26:14;16.10;98.90
7562;DHT22;3822;48.784;9.174;2023-08-31T02:28:40;16.00;98.90
7562;DHT22;3822;48.784;9.174;2023-08-31T02:31:07;16.10;98.90
7562;DHT22;3822;48.784;9.174;2023-08-31T02:33:33;16.00;99.00
7562;DHT22;3822;48.784;9.174;2023-08-31T02:35:59;16.00;99.00
7562;DHT22;3822;48.784;9.174;2023-08-31T02:38:28;16.00;99.00
7562;DHT22;3822;48.784;9.174;2023-08-31T02:40:54;16.00;99.00
7562;DHT22;3822;48.784;9.174;2023-08-31T02:43:21;16.10;99.00
7562;DHT22;3822;48.784;9.174;2023-08-31T02:45:47;16.00;99.00
7562;DHT22;3822;48.784;9.174;2023-08-31T02:48:19;16.10;99.10
7562;DHT22;3822;48.784;9.174;2023-08-31T02:50:45;16.10;99.20
7562;DHT22;3822;48.784;9.174;2023-08-31T02:53:12;16.10;99.20
7562;DHT22;3822;48.784;9.174;2023-08-31T02:55:38;16.10;99.20
7562;DHT22;3822;48.784;9.174;2023-08-31T02:58:04;16.10;99.20
7562;DHT22;3822;48.784;9.174;2023-08-31T03:00:31;16.20;99.20
7562;DHT22;3822;48.784;9.174;2023-08-31T03:02:59;16.20;99.20
7562;DHT22;3822;48.784;9.174;2023-08-31T03:05:25;16.20;99.10
7562;DHT22;3822;48.784;9.174;2023-08-31T03:07:51;16.20;99.10
7562;DHT22;3822;48.784;9.174;2023-08-31T03:10:18;16.20;99.10
7562;DHT22;3822;48.784;9.174;2023-08-31T03:12:44;16.20;99.10
7562;DHT22;3822;48.784;9.174;2023-08-31T03:15:10;16.20;99.10
7562;DHT22;3822;48.784;9.174;2023-08-31T03:17:37;16.20;99.10
7562;DHT22;3822;48.784;9.174;2023-08-31T03:20:03;16.20;99.10
7562;DHT22;3822;48.784;9.174;2023-08-31T03:22:32;16.10;99.10
7562;DHT22;3822;48.784;9.174;2023-08-31T03:24:58;16.10;99.10
7562;DHT22;3822;48.784;9.174;2023-08-31T03:27:27;16.10;99.10
7562;DHT22;3822;48.784;9.174;2023-08-31T03:29:54;16.10;99.10
7562;DHT22;3822;48.784;9.174;2023-08-31T03:32:23;18.40;99.90
7562;DHT22;3822;48.784;9.174;2023-08-31T03:34:49;16.00;99.20
7562;DHT22;3822;48.784;9.174;2023-08-31T03:37:16;15.90;99.20
7562;DHT22;3822;48.784;9.174;2023-08-31T03:39:42;15.90;99.20
7562;DHT22;3822;48.784;9.174;2023-08-31T03:42:09;15.90;99.20
7562;DHT22;3822;48.784;9.174;2023-08-31T03:44:37;15.90;99.30
7562;DHT22;3822;48.784;9.174;2023-08-31T03:47:03;15.90;99.30
7562;DHT22;3822;48.784;9.174;2023-08-31T03:49:30;15.90;99.30
7562;DHT22;3822;48.784;9.174;2023-08-31T03:52:00;15.90;99.40
7562;DHT22;3822;48.784;9.174;2023-08-31T03:54:27;15.90;99.40
7562;DHT22;3822;48.784;9.174;2023-08-31T03:56:53;15.80;99.30
7562;DHT22;3822;48.784;9.174;2023-08-31T03:59:20;15.80;99.40
7562;DHT22;3822;48.784;9.174;2023-08-31T04:01:46;15.80;99.40
7562;DHT22;3822;48.784;9.174;2023-08-31T04:04:12;15.80;99.30
7562;DHT22;3822;48.784;9.174;2023-08-31T04:06:38;15.80;99.40
7562;DHT22;3822;48.784;9.174;2023-08-31T04:09:05;15.70;99.30
7562;DHT22;3822;48.784;9.174;2023-08-31T04:11:31;15.80;99.40
7562;DHT22;3822;48.784;9.174;2023-08-31T04:13:58;15.80;99.40
7562;DHT22;3822;48.784;9.174;2023-08-31T04:16:27;15.70;99.40
7562;DHT22;3822;48.784;9.174;2023-08-31T04:18:54;15.70;99.40
7562;DHT22;3822;48.784;9.174;2023-08-31T04:21:21;18.60;99.90
7562;DHT22;3822;48.784;9.174;2023-08-31T04:23:47;15.70;99.40
7562;DHT22;3822;48.784;9.174;2023-08-31T04:26:16;15.70;99.40
7562;DHT22;3822;48.784;9.174;2023-08-31T04:28:43;15.70;99.40
7562;DHT22;3822;48.784;9.174;2023-08-31T04:31:12;15.70;99.40
7562;DHT22;3822;48.784;9.174;2023-08-31T04:33:38;15.70;99.40
7562;DHT22;3822;48.784;9.174;2023-08-31T04:36:06;15.70;99.30
7562;DHT22;3822;48.784;9.174;2023-08-31T04:38:33;15.70;99.30
7562;DHT22;3822;48.784;9.174;2023-08-31T04:41:02;15.70;99.30
7562;DHT22;3822;48.784;9.174;2023-08-31T04:43:29;15.70;99.30
7562;DHT22;3822;48.784;9.174;2023-08-31T04:45:57;15.70;99.30
7562;DHT22;3822;48.784;9.174;2023-08-31T04:48:23;15.60;99.20
7562;DHT22;3822;48.784;9.174;2023-08-31T04:50:50;15.60;99.20
7562;DHT22;3822;48.784;9.174;2023-08-31T04:53:21;15.60;99.20
7562;DHT22;3822;48.784;9.174;2023-08-31T04:55:47;15.50;99.20
7562;DHT22;3822;48.784;9.174;2023-08-31T04:58:16;15.60;99.30
7562;DHT22;3822;48.784;9.174;2023-08-31T05:00:42;15.50;99.30
7562;DHT22;3822;48.784;9.174;2023-08-31T05:03:10;15.50;99.30
7562;DHT22;3822;48.784;9.174;2023-08-31T05:05:36;15.60;99.30
7562;DHT22;3822;48.784;9.174;2023-08-31T05:08:03;15.50;99.30
7562;DHT22;3822;48.784;9.174;2023-08-31T05:10:29;15.60;99.30
7562;DHT22;3822;48.784;9.174;2023-08-31T05:12:58;15.60;99.30
7562;DHT22;3822;48.784;9.174;2023-08-31T05:15:24;15.60;99.30
7562;DHT22;3822;48.784;9.174;2023-08-31T05:17:58;15.60;99.30
7562;DHT22;3822;48.784;9.174;2023-08-31T05:20:25;15.60;99.30
7562;DHT22;3822;48.784;9.174;2023-08-31T05:22:51;15.60;99.30
7562;DHT22;3822;48.784;9.174;2023-08-31T05:25:17;15.60;99.30
7562;DHT22;3822;48.784;9.174;2023-08-31T05:27:44;15.60;99.20
7562;DHT22;3822;48.784;9.174;2023-08-31T05:30:10;15.70;99.30
7562;DHT22;3822;48.784;9.174;2023-08-31T05:32:37;15.70;99.20
7562;DHT22;3822;48.784;9.174;2023-08-31T05:35:04;15.70;99.20
7562;DHT22;3822;48.784;9.174;2023-08-31T05:37:33;15.70;99.20
7562;DHT22;3822;48.784;9.174;2023-08-31T05:40:02;15.70;99.10
7562;DHT22;3822;48.784;9.174;2023-08-31T05:42:32;15.70;99.10
7562;DHT22;3822;48.784;9.174;2023-08-31T05:45:05;15.70;99.10
7562;DHT22;3822;48.784;9.174;2023-08-31T05:47:31;15.80;99.10
7562;DHT22;3822;48.784;9.174;2023-08-31T05:50:00;15.80;99.00
7562;DHT22;3822;48.784;9.174;2023-08-31T05:52:27;15.80;99.00
7562;DHT22;3822;48.784;9.174;2023-08-31T05:54:54;15.70;99.00
7562;DHT22;3822;48.784;9.174;2023-08-31T05:57:23;15.70;99.00
7562;DHT22;3822;48.784;9.174;2023-08-31T05:59:49;15.70;99.00
7562;DHT22;3822;48.784;9.174;2023-08-31T06:02:16;15.70;99.00
7562;DHT22;3822;48.784;9.174;2023-08-31T06:04:44;15.70;99.00
7562;DHT22;3822;48.784;9.174;2023-08-31T06:07:10;15.70;99.00
7562;DHT22;3822;48.784;9.174;2023-08-31T06:09:37;15.70;99.00
7562;DHT22;3822;48.784;9.174;2023-08-31T06:12:12;15.70;99.00
7562;DHT22;3822;48.784;9.174;2023-08-31T06:14:41;15.80;99.10
7562;DHT22;3822;48.784;9.174;2023-08-31T06:17:07;15.80;99.10
7562;DHT22;3822;48.784;9.174;2023-08-31T06:19:34;15.80;99.10
7562;DHT22;3822;48.784;9.174;2023-08-31T06:22:02;15.80;99.10
7562;DHT22;3822;48.784;9.174;2023-08-31T06:24:31;15.80;99.10
7562;DHT22;3822;48.784;9.174;2023-08-31T06:26:58;15.80;99.10
7562;DHT22;3822;48.784;9.174;2023-08-31T06:29:25;15.80;99.00
7562;DHT22;3822;48.784;9.174;2023-08-31T06:31:53;15.90;99.10
7562;DHT22;3822;48.784;9.174;2023-08-31T06:34:25;15.90;99.00
7562;DHT22;3822;48.784;9.174;2023-08-31T06:36:51;16.40;99.30
7562;DHT22;3822;48.784;9.174;2023-08-31T06:39:18;16.00;99.10
7562;DHT22;3822;48.784;9.174;2023-08-31T06:41:44;16.10;99.00
7562;DHT22;3822;48.784;9.174;2023-08-31T06:44:11;16.20;99.00
7562;DHT22;3822;48.784;9.174;2023-08-31T06:46:37;16.20;98.90
7562;DHT22;3822;48.784;9.174;2023-08-31T06:49:04;16.30;98.90
7562;DHT22;3822;48.784;9.174;2023-08-31T06:51:31;16.40;98.80
7562;DHT22;3822;48.784;9.174;2023-08-31T06:54:00;16.50;98.70
7562;DHT22;3822;48.784;9.174;2023-08-31T06:56:35;16.50;98.50
7562;DHT22;3822;48.784;9.174;2023-08-31T06:59:03;16.50;98.50
7562;DHT22;3822;48.784;9.174;2023-08-31T07:01:30;16.60;98.50
7562;DHT22;3822;48.784;9.174;2023-08-31T07:03:58;16.70;98.40
7562;DHT22;3822;48.784;9.174;2023-08-31T07:06:25;16.80;98.20
7562;DHT22;3822;48.784;9.174;2023-08-31T07:08:51;16.80;97.80
7562;DHT22;3822;48.784;9.174;2023-08-31T07:11:17;16.80;97.50
7562;DHT22;3822;48.784;9.174;2023-08-31T07:13:44;16.90;97.20
7562;DHT22;3822;48.784;9.174;2023-08-31T07:16:10;16.90;96.60
7562;DHT22;3822;48.784;9.174;2023-08-31T07:18:36;16.90;96.60
7562;DHT22;3822;48.784;9.174;2023-08-31T07:21:03;17.00;96.30
7562;DHT22;3822;48.784;9.174;2023-08-31T07:23:30;17.00;96.30
7562;DHT22;3822;48.784;9.174;2023-08-31T07:25:59;17.10;96.30
7562;DHT22;3822;48.784;9.174;2023-08-31T07:28:30;17.10;96.20
7562;DHT22;3822;48.784;9.174;2023-08-31T07:31:03;17.10;96.20
7562;DHT22;3822;48.784;9.174;2023-08-31T07:33:33;17.20;95.90
7562;DHT22;3822;48.784;9.174;2023-08-31T07:36:02;17.20;95.80
7562;DHT22;3822;48.784;9.174;2023-08-31T07:38:32;17.20;95.60
7562;DHT22;3822;48.784;9.174;2023-08-31T07:40:59;17.30;95.50
7562;DHT22;3822;48.784;9.174;2023-08-31T07:43:25;17.40;95.00
7562;DHT22;3822;48.784;9.174;2023-08-31T07:45:52;17.40;95.20
7562;DHT22;3822;48.784;9.174;2023-08-31T07:48:20;17.50;95.30
7562;DHT22;3822;48.784;9.174;2023-08-31T07:50:46;17.70;95.10
7562;DHT22;3822;48.784;9.174;2023-08-31T07:53:12;17.80;94.90
7562;DHT22;3822;48.784;9.174;2023-08-31T07:55:39;17.90;94.70
7562;DHT22;3822;48.784;9.174;2023-08-31T07:58:06;17.90;94.10
7562;DHT22;3822;48.784;9.174;2023-08-31T08:00:35;18.00;93.70
7562;DHT22;3822;48.784;9.174;2023-08-31T08:03:01;18.10;92.80
7562;DHT22;3822;48.784;9.174;2023-08-31T08:05:27;18.20;92.30
7562;DHT22;3822;48.784;9.174;2023-08-31T08:07:56;18.20;91.40
7562;DHT22;3822;48.784;9.174;2023-08-31T08:10:22;18.30;91.30
7562;DHT22;3822;48.784;9.174;2023-08-31T08:12:49;18.30;90.50
7562;DHT22;3822;48.784;9.174;2023-08-31T08:15:17;18.40;90.30
7562;DHT22;3822;48.784;9.174;2023-08-31T08:17:43;18.50;90.40
7562;DHT22;3822;48.784;9.174;2023-08-31T08:20:10;18.60;90.10
7562;DHT22;3822;48.784;9.174;2023-08-31T08:22:38;18.60;90.00
7562;DHT22;3822;48.784;9.174;2023-08-31T08:25:04;18.70;89.50
7562;DHT22;3822;48.784;9.174;2023-08-31T08:27:31;18.70;89.50
7562;DHT22;3822;48.784;9.174;2023-08-31T08:29:59;18.70;89.10
7562;DHT22;3822;48.784;9.174;2023-08-31T08:32:25;18.80;89.10
7562;DHT22;3822;48.784;9.174;2023-08-31T08:34:54;18.80;87.00
7562;DHT22;3822;48.784;9.174;2023-08-31T08:37:22;18.80;86.10
7562;DHT22;3822;48.784;9.174;2023-08-31T08:39:51;18.70;85.10
7562;DHT22;3822;48.784;9.174;2023-08-31T08:42:18;18.70;84.90
7562;DHT22;3822;48.784;9.174;2023-08-31T08:44:45;18.80;85.10
7562;DHT22;3822;48.784;9.174;2023-08-31T08:47:14;18.80;85.00
7562;DHT22;3822;48.784;9.174;2023-08-31T08:49:42;18.80;83.90
7562;DHT22;3822;48.784;9.174;2023-08-31T08:52:09;18.90;84.10
7562;DHT22;3822;48.784;9.174;2023-08-31T08:54:35;18.90;83.10
7562;DHT22;3822;48.784;9.174;2023-08-31T08:57:01;18.90;83.10
7562;DHT22;3822;48.784;9.174;2023-08-31T08:59:32;18.90;83.10
7562;DHT22;3822;48.784;9.174;2023-08-31T09:01:58;18.90;83.30
7562;DHT22;3822;48.784;9.174;2023-08-31T09:04:25;18.90;83.30
7562;DHT22;3822;48.784;9.174;2023-08-31T09:06:56;18.90;82.30
7562;DHT22;3822;48.784;9.174;2023-08-31T09:09:22;18.90;81.80
7562;DHT22;3822;48.784;9.174;2023-08-31T09:11:49;19.00;82.20
7562;DHT22;3822;48.784;9.174;2023-08-31T09:14:19;19.00;82.90
7562;DHT22;3822;48.784;9.174;2023-08-31T09:16:46;19.10;83.50
7562;DHT22;3822;48.784;9.174;2023-08-31T09:19:18;19.10;83.20
7562;DHT22;3822;48.784;9.174;2023-08-31T09:21:48;19.20;83.00
7562;DHT22;3822;48.784;9.174;2023-08-31T09:24:15;19.20;82.40
7562;DHT22;3822;48.784;9.174;2023-08-31T09:26:56;19.20;82.70
7562;DHT22;3822;48.784;9.174;2023-08-31T09:29:23;19.20;82.70
7562;DHT22;3822;48.784;9.174;2023-08-31T09:31:49;19.30;82.80
7562;DHT22;3822;48.784;9.174;2023-08-31T09:34:17;19.30;83.10
7562;DHT22;3822;48.784;9.174;2023-08-31T09:36:44;19.40;83.00
7562;DHT22;3822;48.784;9.174;2023-08-31T09:39:12;19.40;81.60
7562;DHT22;3822;48.784;9.174;2023-08-31T09:41:52;19.40;80.90
7562;DHT22;3822;48.784;9.174;2023-08-31T09:44:21;19.40;81.00
7562;DHT22;3822;48.784;9.174;2023-08-31T09:46:50;17.50;78.50
7562;DHT22;3822;48.784;9.174;2023-08-31T09:49:18;19.40;80.60
7562;DHT22;3822;48.784;9.174;2023-08-31T09:51:48;19.50;79.30
7562;DHT22;3822;48.784;9.174;2023-08-31T09:54:16;19.50;78.50
7562;DHT22;3822;48.784;9.174;2023-08-31T09:56:45;19.60;75.90
7562;DHT22;3822;48.784;9.174;2023-08-31T09:59:15;19.60;74.30
7562;DHT22;3822;48.784;9.174;2023-08-31T10:01:43;19.60;74.30
7562;DHT22;3822;48.784;9.174;2023-08-31T10:04:10;19.60;72.80
7562;DHT22;3822;48.784;9.174;2023-08-31T10:06:42;19.60;72.80
7562;DHT22;3822;48.784;9.174;2023-08-31T10:09:08;19.60;72.10
7562;DHT22;3822;48.784;9.174;2023-08-31T10:11:38;19.60;71.50
7562;DHT22;3822;48.784;9.174;2023-08-31T10:14:05;19.70;71.90
7562;DHT22;3822;48.784;9.174;2023-08-31T10:16:34;19.70;72.20
7562;DHT22;3822;48.784;9.174;2023-08-31T10:19:02;19.80;72.60
7562;DHT22;3822;48.784;9.174;2023-08-31T10:21:30;19.80;70.90
7562;DHT22;3822;48.784;9.174;2023-08-31T10:23:57;19.80;69.90
7562;DHT22;3822;48.784;9.174;2023-08-31T10:26:25;19.80;69.90
7562;DHT22;3822;48.784;9.174;2023-08-31T10:28:52;19.80;70.20
7562;DHT22;3822;48.784;9.174;2023-08-31T10:31:19;19.80;70.80
7562;DHT22;3822;48.784;9.174;2023-08-31T10:36:21;19.80;71.00
7562;DHT22;3822;48.784;9.174;2023-08-31T10:38:59;19.90;71.40
7562;DHT22;3822;48.784;9.174;2023-08-31T10:41:32;19.80;71.50
7562;DHT22;3822;48.784;9.174;2023-08-31T10:43:59;19.90;71.80
7562;DHT22;3822;48.784;9.174;2023-08-31T10:46:27;19.90;71.50
7562;DHT22;3822;48.784;9.174;2023-08-31T10:48:57;19.90;71.20
7562;DHT22;3822;48.784;9.174;2023-08-31T10:51:25;20.00;70.50
7562;DHT22;3822;48.784;9.174;2023-08-31T10:54:03;20.00;69.90
7562;DHT22;3822;48.784;9.174;2023-08-31T10:59:40;18.80;68.00
7562;DHT22;3822;48.784;9.174;2023-08-31T11:02:10;20.10;68.80
7562;DHT22;3822;48.784;9.174;2023-08-31T11:05:00;20.00;68.70
7562;DHT22;3822;48.784;9.174;2023-08-31T11:07:37;20.00;68.80
7562;DHT22;3822;48.784;9.174;2023-08-31T11:12:46;20.00;70.10
7562;DHT22;3822;48.784;9.174;2023-08-31T11:15:17;20.00;70.30
7562;DHT22;3822;48.784;9.174;2023-08-31T11:17:44;20.10;71.00
7562;DHT22;3822;48.784;9.174;2023-08-31T11:20:18;20.00;71.20
7562;DHT22;3822;48.784;9.174;2023-08-31T11:22:47;20.10;71.80
7562;DHT22;3822;48.784;9.174;2023-08-31T11:25:19;20.10;71.50
7562;DHT22;3822;48.784;9.174;2023-08-31T11:27:53;20.10;71.90
7562;DHT22;3822;48.784;9.174;2023-08-31T11:30:20;20.20;71.90
7562;DHT22;3822;48.784;9.174;2023-08-31T11:32:47;20.30;71.50
7562;DHT22;3822;48.784;9.174;2023-08-31T11:35:14;20.30;71.80
7562;DHT22;3822;48.784;9.174;2023-08-31T11:37:45;20.40;71.90
7562;DHT22;3822;48.784;9.174;2023-08-31T11:40:17;20.50;71.20
7562;DHT22;3822;48.784;9.174;2023-08-31T11:42:44;20.50;70.80
7562;DHT22;3822;48.784;9.174;2023-08-31T11:45:11;20.60;71.00
7562;DHT22;3822;48.784;9.174;2023-08-31T11:47:39;20.60;70.60
7562;DHT22;3822;48.784;9.174;2023-08-31T11:50:09;20.60;70.70
7562;DHT22;3822;48.784;9.174;2023-08-31T11:52:37;20.70;71.10
7562;DHT22;3822;48.784;9.174;2023-08-31T11:55:09;20.70;71.20
7562;DHT22;3822;48.784;9.174;2023-08-31T11:57:40;20.70;71.10
7562;DHT22;3822;48.784;9.174;2023-08-31T12:00:06;20.70;70.50
7562;DHT22;3822;48.784;9.174;2023-08-31T12:02:36;20.70;70.10
7562;DHT22;3822;48.784;9.174;2023-08-31T12:05:02;20.70;70.30
7562;DHT22;3822;48.784;9.174;2023-08-31T12:07:39;20.70;70.40
7562;DHT22;3822;48.784;9.174;2023-08-31T12:10:09;20.80;70.80
7562;DHT22;3822;48.784;9.174;2023-08-31T12:12:40;20.80;70.30
7562;DHT22;3822;48.784;9.174;2023-08-31T12:15:06;20.80;70.40
7562;DHT22;3822;48.784;9.174;2023-08-31T12:17:36;20.80;70.10
7562;DHT22;3822;48.784;9.174;2023-08-31T12:20:06;20.80;69.80
7562;DHT22;3822;48.784;9.174;2023-08-31T12:22:33;20.80;70.10
7562;DHT22;3822;48.784;9.174;2023-08-31T12:25:04;20.90;69.90
7562;DHT22;3822;48.784;9.174;2023-08-31T12:27:31;20.90;70.00
7562;DHT22;3822;48.784;9.174;2023-08-31T12:29:57;20.90;69.40
7562;DHT22;3822;48.784;9.174;2023-08-31T12:32:24;21.00;69.10
7562;DHT22;3822;48.784;9.174;2023-08-31T12:34:50;21.10;69.30
7562;DHT22;3822;48.784;9.174;2023-08-31T12:37:16;21.10;69.40
7562;DHT22;3822;48.784;9.174;2023-08-31T12:39:42;21.20;69.50
7562;DHT22;3822;48.784;9.174;2023-08-31T12:42:11;21.20;68.80
7562;DHT22;3822;48.784;9.174;2023-08-31T12:44:37;21.30;69.00
7562;DHT22;3822;48.784;9.174;2023-08-31T12:47:04;21.50;67.80
7562;DHT22;3822;48.784;9.174;2023-08-31T12:49:30;21.50;67.40
7562;DHT22;3822;48.784;9.174;2023-08-31T12:51:56;21.60;67.00
7562;DHT22;3822;48.784;9.174;2023-08-31T12:54:23;21.60;67.10
7562;DHT22;3822;48.784;9.174;2023-08-31T12:56:49;21.60;67.20
7562;DHT22;3822;48.784;9.174;2023-08-31T12:59:15;21.60;67.10
7562;DHT22;3822;48.784;9.174;2023-08-31T13:01:42;21.60;67.30
7562;DHT22;3822;48.784;9.174;2023-08-31T13:04:08;21.70;67.30
7562;DHT22;3822;48.784;9.174;2023-08-31T13:06:34;21.70;67.50
7562;DHT22;3822;48.784;9.174;2023-08-31T13:09:01;21.70;67.20
7562;DHT22;3822;48.784;9.174;2023-08-31T13:11:28;21.70;67.30
7562;DHT22;3822;48.784;9.174;2023-08-31T13:13:55;21.60;67.30
7562;DHT22;3822;48.784;9.174;2023-08-31T13:16:21;21.70;67.50
7562;DHT22;3822;48.784;9.174;2023-08-31T13:18:50;21.70;67.80
7562;DHT22;3822;48.784;9.174;2023-08-31T13:21:16;21.70;68.00
7562;DHT22;3822;48.784;9.174;2023-08-31T13:23:42;21.70;67.60
7562;DHT22;3822;48.784;9.174;2023-08-31T13:26:10;21.70;67.70
7562;DHT22;3822;48.784;9.174;2023-08-31T13:28:36;21.70;67.50
7562;DHT22;3822;48.784;9.174;2023-08-31T13:31:02;21.80;67.70
7562;DHT22;3822;48.784;9.174;2023-08-31T13:33:29;21.90;67.80
7562;DHT22;3822;48.784;9.174;2023-08-31T13:35:58;22.00;68.20
7562;DHT22;3822;48.784;9.174;2023-08-31T13:38:25;22.20;68.20
7562;DHT22;3822;48.784;9.174;2023-08-31T13:40:57;22.30;68.10
7562;DHT22;3822;48.784;9.174;2023-08-31T13:43:23;22.50;68.40
7562;DHT22;3822;48.784;9.174;2023-08-31T13:45:50;22.70;67.80
7562;DHT22;3822;48.784;9.174;2023-08-31T13:48:16;22.90;67.60
7562;DHT22;3822;48.784;9.174;2023-08-31T13:50:46;23.00;66.90
7562;DHT22;3822;48.784;9.174;2023-08-31T13:53:15;23.10;66.60
7562;DHT22;3822;48.784;9.174;2023-08-31T13:55:41;23.20;66.50
7562;DHT22;3822;48.784;9.174;2023-08-31T13:58:08;23.20;65.90
7562;DHT22;3822;48.784;9.174;2023-08-31T14:00:36;23.30;65.50
7562;DHT22;3822;48.784;9.174;2023-08-31T14:03:04;23.30;64.60
7562;DHT22;3822;48.784;9.174;2023-08-31T14:05:30;23.20;63.40
7562;DHT22;3822;48.784;9.174;2023-08-31T14:07:57;23.10;63.70
7562;DHT22;3822;48.784;9.174;2023-08-31T14:10:24;23.10;64.20
7562;DHT22;3822;48.784;9.174;2023-08-31T14:12:54;23.10;63.80
7562;DHT22;3822;48.784;9.174;2023-08-31T14:15:22;22.90;63.70
7562;DHT22;3822;48.784;9.174;2023-08-31T14:17:51;22.80;64.00
7562;DHT22;3822;48.784;9.174;2023-08-31T14:20:21;22.70;64.10
7562;DHT22;3822;48.784;9.174;2023-08-31T14:22:48;22.60;64.50
7562;DHT22;3822;48.784;9.174;2023-08-31T14:25:14;22.60;64.90
7562;DHT22;3822;48.784;9.174;2023-08-31T14:27:41;22.60;65.00
7562;DHT22;3822;48.784;9.174;2023-08-31T14:30:07;22.50;65.50
7562;DHT22;3822;48.784;9.174;2023-08-31T14:32:34;22.40;65.60
7562;DHT22;3822;48.784;9.174;2023-08-31T14:35:00;22.40;66.00
7562;DHT22;3822;48.784;9.174;2023-08-31T14:37:27;22.40;66.30
7562;DHT22;3822;48.784;9.174;2023-08-31T14:39:54;22.30;66.40
7562;DHT22;3822;48.784;9.174;2023-08-31T14:42:20;22.30;66.70
7562;DHT22;3822;48.784;9.174;2023-08-31T14:44:47;22.20;66.80
7562;DHT22;3822;48.784;9.174;2023-08-31T14:47:18;22.20;66.80
7562;DHT22;3822;48.784;9.174;2023-08-31T14:49:44;22.20;67.00
7562;DHT22;3822;48.784;9.174;2023-08-31T14:52:11;22.10;67.10
7562;DHT22;3822;48.784;9.174;2023-08-31T14:54:37;22.10;67.20
7562;DHT22;3822;48.784;9.174;2023-08-31T14:57:03;22.00;67.20
7562;DHT22;3822;48.784;9.174;2023-08-31T14:59:30;22.00;67.50
7562;DHT22;3822;48.784;9.174;2023-08-31T15:01:56;22.00;67.80
7562;DHT22;3822;48.784;9.174;2023-08-31T15:04:23;22.00;67.90
7562;DHT22;3822;48.784;9.174;2023-08-31T15:06:49;21.90;68.00
7562;DHT22;3822;48.784;9.174;2023-08-31T15:09:19;21.90;68.30
7562;DHT22;3822;48.784;9.174;2023-08-31T15:11:46;21.80;69.10
7562;DHT22;3822;48.784;9.174;2023-08-31T15:14:13;21.80;68.50
7562;DHT22;3822;48.784;9.174;2023-08-31T15:16:41;21.80;68.80
7562;DHT22;3822;48.784;9.174;2023-08-31T15:19:08;21.80;68.80
7562;DHT22;3822;48.784;9.174;2023-08-31T15:21:34;21.80;69.00
7562;DHT22;3822;48.784;9.174;2023-08-31T15:24:00;21.80;69.20
7562;DHT22;3822;48.784;9.174;2023-08-31T15:26:28;21.80;69.00
7562;DHT22;3822;48.784;9.174;2023-08-31T15:28:54;21.80;69.10
7562;DHT22;3822;48.784;9.174;2023-08-31T15:31:20;21.80;69.20
7562;DHT22;3822;48.784;9.174;2023-08-31T15:33:48;21.80;69.30
7562;DHT22;3822;48.784;9.174;2023-08-31T15:36:17;21.80;69.40
7562;DHT22;3822;48.784;9.174;2023-08-31T15:38:43;21.80;69.50
7562;DHT22;3822;48.784;9.174;2023-08-31T15:41:12;21.90;69.90
7562;DHT22;3822;48.784;9.174;2023-08-31T15:43:39;21.80;69.70
7562;DHT22;3822;48.784;9.174;2023-08-31T15:46:05;21.80;69.80
7562;DHT22;3822;48.784;9.174;2023-08-31T15:48:31;21.80;70.00
7562;DHT22;3822;48.784;9.174;2023-08-31T15:50:58;21.80;70.20
7562;DHT22;3822;48.784;9.174;2023-08-31T15:53:25;21.80;70.30
7562;DHT22;3822;48.784;9.174;2023-08-31T15:55:59;21.80;70.40
7562;DHT22;3822;48.784;9.174;2023-08-31T15:58:25;21.80;70.60
7562;DHT22;3822;48.784;9.174;2023-08-31T16:00:52;21.70;70.80
7562;DHT22;3822;48.784;9.174;2023-08-31T16:03:27;21.70;71.10
7562;DHT22;3822;48.784;9.174;2023-08-31T16:05:57;21.70;71.20
7562;DHT22;3822;48.784;9.174;2023-08-31T16:08:25;21.70;71.40
7562;DHT22;3822;48.784;9.174;2023-08-31T16:10:51;21.70;71.60
7562;DHT22;3822;48.784;9.174;2023-08-31T16:13:21;21.70;71.90
7562;DHT22;3822;48.784;9.174;2023-08-31T16:15:48;21.70;72.20
7562;DHT22;3822;48.784;9.174;2023-08-31T16:18:15;21.70;72.50
7562;DHT22;3822;48.784;9.174;2023-08-31T16:20:42;21.70;72.40
7562;DHT22;3822;48.784;9.174;2023-08-31T16:23:11;21.70;72.40
7562;DHT22;3822;48.784;9.174;2023-08-31T16:25:38;21.70;72.60
7562;DHT22;3822;48.784;9.174;2023-08-31T16:28:04;21.60;72.60
7562;DHT22;3822;48.784;9.174;2023-08-31T16:30:33;21.60;72.90
7562;DHT22;3822;48.784;9.174;2023-08-31T16:33:00;21.60;73.50